Time;durP1;ratioP1;P1;durP2;ratioP2;P2;SDS_P1;SDS_P2;PMS_P1;PMS_P2;Temp;Humidity;BMP_temperature;BMP_pressure;BME280_temperature;BME280_humidity;BME280_pressure;Samples;Min_cycle;Max_cycle;Signal;HPM_P1;HPM_P2
2023/06/19 00:00:45;;;;;;;;;5.00;5.00;;;;;24.32;59.49;100551.16;2086714;28;46650;-64
2023/06/19 00:01:45;;;;;;;;;5.00;4.00;;;;;24.32;59.06;100557.44;2087820;28;46461;-63
2023/06/19 00:02:46;;;;;;;;;5.00;5.00;;;;;24.32;59.18;100551.16;2087591;28;45955;-64
2023/06/19 00:03:46;;;;;;;;;4.25;4.25;;;;;24.31;59.02;100547.59;2087044;28;46710;-65
2023/06/19 00:04:46;;;;;;;;;3.67;3.67;;;;;24.32;59.21;100548.44;2087076;28;45783;-64
2023/06/19 00:05:47;;;;;;;;;4.75;4.75;;;;;24.31;59.29;100546.72;2085981;28;46834;-64
2023/06/19 00:06:48;;;;;;;;;5.00;5.00;;;;;24.32;59.60;100557.44;2087968;28;45573;-62
2023/06/19 00:07:48;;;;;;;;;5.25;5.25;;;;;24.31;59.55;100555.72;2086508;28;46379;-63
2023/06/19 00:08:49;;;;;;;;;8.00;6.00;;;;;24.31;59.19;100554.88;2086728;28;45468;-64
2023/06/19 00:09:49;;;;;;;;;4.00;4.00;;;;;24.29;59.12;100552.25;2102340;27;46220;-63
2023/06/19 00:10:50;;;;;;;;;7.00;7.00;;;;;24.29;58.79;100554.09;2102795;28;45926;-63
2023/06/19 00:11:50;;;;;;;;;5.67;5.67;;;;;24.28;59.24;100547.81;2086608;28;46365;-63
2023/06/19 00:12:50;;;;;;;;;3.67;3.67;;;;;24.25;58.99;100547.19;2088302;28;45544;-64
2023/06/19 00:13:50;;;;;;;;;5.67;5.67;;;;;24.23;59.23;100546.44;2087647;28;47154;-63
2023/06/19 00:14:51;;;;;;;;;5.00;5.00;;;;;24.21;59.29;100548.44;2088045;28;45977;-63
2023/06/19 00:15:51;;;;;;;;;11.25;11.00;;;;;24.20;59.26;100544.84;2088047;28;46186;-64
2023/06/19 00:16:51;;;;;;;;;7.75;7.25;;;;;24.19;59.13;100548.56;2088692;28;45959;-64
2023/06/19 00:17:52;;;;;;;;;5.33;5.33;;;;;24.17;59.40;100549.66;2087621;28;46297;-63
2023/06/19 00:18:55;;;;;;;;;5.75;5.75;;;;;24.15;59.41;100547.09;2088400;28;46667;-63
2023/06/19 00:19:55;;;;;;;;;8.20;8.20;;;;;24.14;59.39;100552.59;2087998;28;46993;-63
2023/06/19 00:20:56;;;;;;;;;6.25;6.25;;;;;24.13;59.33;100548.19;2088089;28;46432;-62
2023/06/19 00:21:57;;;;;;;;;4.75;4.75;;;;;24.12;59.84;100557.28;2087331;28;46419;-63
2023/06/19 00:22:57;;;;;;;;;7.75;7.75;;;;;24.12;59.28;100557.28;2087237;28;45645;-63
2023/06/19 00:23:57;;;;;;;;;6.75;6.75;;;;;24.09;59.44;100561.13;2087576;28;46440;-63
2023/06/19 00:24:58;;;;;;;;;4.50;4.50;;;;;24.08;59.21;100565.69;2088756;28;47005;-64
2023/06/19 00:26:00;;;;;;;;;7.00;7.00;;;;;24.05;59.56;100563.22;2087983;28;45888;-64
2023/06/19 00:27:02;;;;;;;;;7.60;6.80;;;;;24.03;59.35;100558.94;2088336;28;45761;-64
2023/06/19 00:28:02;;;;;;;;;4.60;4.60;;;;;24.01;59.22;100564.47;2087564;28;46591;-62
2023/06/19 00:29:03;;;;;;;;;5.75;5.75;;;;;23.99;59.42;100561.00;2087670;28;45229;-63
2023/06/19 00:30:05;;;;;;;;;6.00;6.00;;;;;23.97;59.34;100564.81;2087906;28;46256;-62
2023/06/19 00:31:06;;;;;;;;;6.80;5.00;;;;;23.96;59.45;100557.69;2088392;28;45641;-64
2023/06/19 00:32:07;;;;;;;;;7.40;7.40;;;;;23.93;59.57;100561.50;2087802;28;45374;-63
2023/06/19 00:33:08;;;;;;;;;5.00;5.00;;;;;23.90;59.74;100569.03;2087868;28;46432;-63
2023/06/19 00:34:08;;;;;;;;;5.00;5.00;;;;;23.89;60.19;100576.28;2087791;28;46389;-63
2023/06/19 00:35:09;;;;;;;;;5.75;5.50;;;;;23.88;59.86;100579.09;2087836;28;46612;-63
2023/06/19 00:36:10;;;;;;;;;5.25;5.25;;;;;23.85;60.07;100582.91;2087736;28;45638;-64
2023/06/19 00:37:12;;;;;;;;;6.60;6.60;;;;;23.84;60.16;100583.03;2087684;28;46605;-64
2023/06/19 00:38:13;;;;;;;;;7.60;7.60;;;;;23.82;60.24;100582.31;2088022;28;45627;-63
2023/06/19 00:39:13;;;;;;;;;5.00;5.00;;;;;23.81;59.77;100586.88;2087968;28;45789;-63
2023/06/19 00:40:26;;;;;;;;;7.00;7.00;;;;;23.79;60.03;100596.97;2087948;28;46495;-64
2023/06/19 00:41:27;;;;;;;;;9.00;6.20;;;;;23.79;59.83;100599.69;2087680;28;47130;-63
2023/06/19 00:42:27;;;;;;;;;5.00;5.00;;;;;23.80;59.82;100600.53;2087777;28;46921;-64
2023/06/19 00:43:28;;;;;;;;;7.50;6.50;;;;;23.78;60.25;100596.09;2088146;28;46341;-64
2023/06/19 00:44:28;;;;;;;;;7.50;7.50;;;;;23.82;60.41;100604.00;2088380;28;46284;-62
2023/06/19 00:45:29;;;;;;;;;7.75;6.00;;;;;23.84;59.88;100610.16;2087968;28;46148;-61
2023/06/19 00:46:30;;;;;;;;;7.00;6.40;;;;;23.84;59.52;100605.59;2095745;28;45529;-62
2023/06/19 00:47:33;;;;;;;;;7.00;6.00;;;;;23.83;59.79;100605.72;2095541;28;45946;-63
2023/06/19 00:48:34;;;;;;;;;7.00;7.00;;;;;23.83;60.07;100609.28;2085585;28;45155;-63
2023/06/19 00:49:35;;;;;;;;;6.00;6.00;;;;;23.81;59.77;100605.84;2087508;28;46350;-63
2023/06/19 00:50:37;;;;;;;;;7.50;6.00;;;;;23.78;60.05;100604.22;2087949;28;46723;-62
2023/06/19 00:51:38;;;;;;;;;5.20;5.20;;;;;23.77;59.93;100607.94;2087994;28;45973;-63
2023/06/19 00:52:39;;;;;;;;;6.33;5.67;;;;;23.75;59.82;100606.31;2088262;28;47265;-63
2023/06/19 00:53:39;;;;;;;;;9.60;8.20;;;;;23.74;59.98;100602.72;2088062;28;46468;-64
2023/06/19 00:54:40;;;;;;;;;7.00;6.00;;;;;23.74;59.82;100602.72;2088413;28;46523;-64
2023/06/19 00:55:40;;;;;;;;;5.25;5.25;;;;;23.73;60.29;100606.44;2088020;28;46074;-64
2023/06/19 00:56:41;;;;;;;;;7.00;7.00;;;;;23.73;59.62;100608.28;2088260;28;46651;-64
2023/06/19 00:57:42;;;;;;;;;7.25;7.25;;;;;23.72;59.92;100604.69;2089982;28;45495;-64
2023/06/19 00:58:43;;;;;;;;;8.00;8.00;;;;;23.71;59.87;100608.41;2087705;28;47052;-64
2023/06/19 00:59:43;;;;;;;;;6.75;6.75;;;;;23.70;60.06;100606.66;2088127;28;45599;-62
2023/06/19 01:00:43;;;;;;;;;8.50;8.50;;;;;23.68;60.30;100605.06;2087701;28;46065;-62
2023/06/19 01:01:45;;;;;;;;;6.75;6.75;;;;;23.67;60.07;100603.34;2080042;28;45738;-63
2023/06/19 01:02:46;;;;;;;;;6.20;6.20;;;;;23.66;60.31;100612.47;2085869;28;45927;-64
2023/06/19 01:03:47;;;;;;;;;7.40;7.40;;;;;23.65;60.52;100610.75;2087973;28;48906;-64
2023/06/19 01:04:47;;;;;;;;;8.75;8.75;;;;;23.64;60.35;100607.16;2088399;28;45352;-64
2023/06/19 01:05:51;;;;;;;;;10.75;10.75;;;;;23.64;59.91;100611.72;2089648;28;45797;-64
2023/06/19 01:07:09;;;;;;;;;7.80;7.80;;;;;23.62;60.43;100613.66;2088930;28;45699;-64
2023/06/19 01:08:49;;;;;;;;;8.80;7.40;;;;;23.61;60.43;100620.06;2084538;28;45807;-65
2023/06/19 01:09:59;;;;;;;;;8.80;8.80;;;;;23.61;60.81;100625.47;2092563;28;46545;-65
2023/06/19 01:11:01;;;;;;;;;8.00;8.00;;;;;23.60;60.42;100619.19;2095629;28;46531;-64
2023/06/19 01:12:14;;;;;;;;;11.20;9.00;;;;;23.60;60.33;100623.75;2089588;28;45819;-65
2023/06/19 01:13:27;;;;;;;;;7.60;7.20;;;;;23.58;60.72;100625.72;2088740;28;46015;-65
2023/06/19 01:14:35;;;;;;;;;9.40;9.20;;;;;23.56;60.46;100622.25;2074808;28;45783;-65
2023/06/19 01:15:38;;;;;;;;;11.40;10.20;;;;;23.54;60.62;100627.78;2086819;28;48180;-65
2023/06/19 01:16:39;;;;;;;;;9.00;8.00;;;;;23.54;60.84;100627.78;2090638;28;46525;-66
2023/06/19 01:17:40;;;;;;;;;8.75;7.75;;;;;23.54;60.82;100621.50;2096229;28;46096;-65
2023/06/19 01:18:42;;;;;;;;;9.00;9.00;;;;;23.56;60.77;100624.94;2092438;28;46187;-62
2023/06/19 01:19:42;;;;;;;;;8.00;8.00;;;;;23.56;60.73;100628.53;2091889;28;45376;-64
2023/06/19 01:20:43;;;;;;;;;7.75;7.75;;;;;23.57;61.02;100623.97;2097359;28;47141;-65
2023/06/19 01:21:44;;;;;;;;;6.00;6.00;;;;;23.58;60.68;100625.72;2091830;28;45465;-65
2023/06/19 01:22:45;;;;;;;;;7.50;6.75;;;;;23.58;60.78;100621.16;2094530;28;46411;-64
2023/06/19 01:23:46;;;;;;;;;10.50;8.25;;;;;23.58;60.73;100618.47;2094424;28;46351;-65
2023/06/19 01:24:46;;;;;;;;;7.33;7.00;;;;;23.58;60.82;100621.16;2091469;28;46172;-62
2023/06/19 01:25:46;;;;;;;;;6.33;6.33;;;;;23.60;60.72;100626.47;2095256;28;45036;-62
2023/06/19 01:26:47;;;;;;;;;8.50;8.50;;;;;23.59;60.60;100619.31;2093179;28;47957;-63
2023/06/19 01:27:47;;;;;;;;;7.50;7.50;;;;;23.59;60.97;100628.31;2092211;28;45403;-63
2023/06/19 01:28:48;;;;;;;;;8.50;8.00;;;;;23.59;60.88;100635.56;2096518;28;46140;-64
2023/06/19 01:29:49;;;;;;;;;6.25;6.25;;;;;23.59;60.97;100628.31;2092010;28;46168;-64
2023/06/19 01:30:50;;;;;;;;;7.60;6.20;;;;;23.60;60.89;100623.75;2093718;28;46128;-59
2023/06/19 01:31:59;;;;;;;;;6.20;6.20;;;;;23.62;61.09;100624.50;2095820;28;46590;-64
2023/06/19 01:33:23;;;;;;;;;8.40;8.40;;;;;23.64;60.86;100627.97;2091170;28;46245;-63
2023/06/19 01:34:26;;;;;;;;;8.80;8.80;;;;;23.66;60.79;100626.00;2091285;28;45798;-64
2023/06/19 01:35:34;;;;;;;;;8.80;8.60;;;;;23.63;60.74;100616.28;2094993;28;46586;-64
2023/06/19 01:36:35;;;;;;;;;7.60;7.60;;;;;23.63;61.26;100621.69;2094417;28;47943;-64
2023/06/19 01:37:38;;;;;;;;;4.40;4.40;;;;;23.63;60.86;100624.41;2087861;28;46460;-65
2023/06/19 01:38:39;;;;;;;;;7.40;7.20;;;;;23.62;61.10;100616.38;2080724;28;45702;-63
2023/06/19 01:39:41;;;;;;;;;6.00;5.60;;;;;23.63;61.01;100618.09;2090508;28;47498;-63
2023/06/19 01:40:41;;;;;;;;;8.80;8.80;;;;;23.59;60.90;100612.06;2088983;28;46255;-63
2023/06/19 01:41:42;;;;;;;;;9.00;8.00;;;;;23.59;61.11;100616.63;2097115;28;46409;-63
2023/06/19 01:42:43;;;;;;;;;8.25;8.00;;;;;23.59;61.15;100616.63;2095385;28;45212;-64
2023/06/19 01:43:45;;;;;;;;;8.33;8.33;;;;;23.60;61.01;100619.19;2088342;28;45545;-62
2023/06/19 01:44:45;;;;;;;;;10.60;8.00;;;;;23.61;60.80;100620.94;2095815;28;45906;-62
2023/06/19 01:45:46;;;;;;;;;7.50;7.50;;;;;23.61;61.00;100620.94;2095441;28;45541;-63
2023/06/19 01:46:48;;;;;;;;;9.00;8.00;;;;;23.63;60.87;100613.56;2089445;28;45981;-63
2023/06/19 01:47:49;;;;;;;;;9.40;8.80;;;;;23.65;60.91;100624.28;2089020;28;46067;-63
2023/06/19 01:48:49;;;;;;;;;9.67;8.67;;;;;23.67;60.68;100623.19;2088534;28;46663;-62
2023/06/19 01:49:50;;;;;;;;;11.00;9.33;;;;;23.69;60.52;100623.06;2088693;28;46955;-63
2023/06/19 01:50:50;;;;;;;;;7.33;6.33;;;;;23.69;60.71;100625.75;2089232;28;46160;-62
2023/06/19 01:51:51;;;;;;;;;9.00;9.00;;;;;23.70;60.77;100630.19;2089705;28;46001;-65
2023/06/19 01:52:52;;;;;;;;;7.67;7.67;;;;;23.70;60.93;100622.94;2089038;28;45971;-63
2023/06/19 01:53:52;;;;;;;;;7.60;7.20;;;;;23.70;60.69;100631.06;2088302;28;46351;-63
2023/06/19 01:54:52;;;;;;;;;8.33;6.00;;;;;23.71;60.86;100632.78;2089064;28;46429;-65
2023/06/19 01:55:53;;;;;;;;;9.00;8.75;;;;;23.73;61.02;100619.13;2094099;28;45876;-65
2023/06/19 01:56:53;;;;;;;;;9.75;9.75;;;;;23.73;60.89;100625.38;2097552;28;45025;-63
2023/06/19 01:57:54;;;;;;;;;7.67;7.67;;;;;23.72;60.45;100622.81;2096794;28;45924;-62
2023/06/19 01:58:55;;;;;;;;;9.75;9.50;;;;;23.71;60.77;100621.94;2096559;28;46669;-63
2023/06/19 01:59:55;;;;;;;;;7.75;7.75;;;;;23.70;60.59;100622.94;2096376;28;46389;-64
2023/06/19 02:00:56;;;;;;;;;7.25;6.25;;;;;23.69;60.77;100629.34;2096213;28;46763;-62
2023/06/19 02:01:56;;;;;;;;;8.00;8.00;;;;;23.71;60.98;100632.78;2096472;28;46375;-64
2023/06/19 02:02:56;;;;;;;;;7.33;7.33;;;;;23.70;60.68;100628.34;2088975;28;46648;-64
2023/06/19 02:03:57;;;;;;;;;9.00;8.25;;;;;23.71;60.72;100631.91;2091743;28;46118;-64
2023/06/19 02:04:57;;;;;;;;;9.25;7.50;;;;;23.70;60.50;100624.78;2092230;28;45891;-64
2023/06/19 02:05:58;;;;;;;;;8.75;8.75;;;;;23.69;60.78;100626.63;2094025;28;46586;-60
2023/06/19 02:06:58;;;;;;;;;10.75;9.00;;;;;23.69;60.84;100625.75;2094522;28;45771;-64
2023/06/19 02:07:59;;;;;;;;;8.25;6.00;;;;;23.67;60.62;100631.31;2086686;28;45775;-63
2023/06/19 02:08:59;;;;;;;;;7.50;6.75;;;;;23.67;60.89;100630.44;2090683;28;45949;-63
2023/06/19 02:09:59;;;;;;;;;7.75;6.50;;;;;23.65;60.74;100625.16;2088649;28;46070;-64
2023/06/19 02:11:00;;;;;;;;;10.50;10.00;;;;;23.66;61.04;100639.56;2091120;28;44969;-64
2023/06/19 02:12:00;;;;;;;;;10.00;9.50;;;;;23.64;61.19;100630.69;2086723;28;45549;-63
2023/06/19 02:13:00;;;;;;;;;9.00;9.00;;;;;23.64;60.99;100638.81;2087959;28;45706;-64
2023/06/19 02:14:01;;;;;;;;;9.50;8.50;;;;;23.61;61.00;100636.31;2088677;28;46032;-63
2023/06/19 02:15:01;;;;;;;;;8.50;8.00;;;;;23.60;60.99;100626.47;2088924;28;46733;-64
2023/06/19 02:16:01;;;;;;;;;7.00;7.00;;;;;23.60;60.75;100640.00;2089183;28;46631;-65
2023/06/19 02:17:02;;;;;;;;;11.00;10.00;;;;;23.61;60.85;100633.59;2089900;28;45992;-63
2023/06/19 02:18:02;;;;;;;;;11.75;10.25;;;;;23.59;60.98;100631.03;2088711;28;46214;-63
2023/06/19 02:19:03;;;;;;;;;7.75;7.75;;;;;23.59;61.05;100636.44;2089264;28;46882;-62
2023/06/19 02:20:11;;;;;;;;;8.00;7.25;;;;;23.59;60.92;100639.16;2089504;28;46687;-65
2023/06/19 02:21:11;;;;;;;;;10.00;10.00;;;;;23.57;61.16;100638.38;2087822;28;46666;-64
2023/06/19 02:22:11;;;;;;;;;9.00;9.00;;;;;23.57;61.03;100630.25;2089150;28;46772;-65
2023/06/19 02:23:12;;;;;;;;;10.00;8.50;;;;;23.57;61.12;100630.25;2089861;28;46418;-67
2023/06/19 02:24:12;;;;;;;;;8.25;7.00;;;;;23.56;61.21;100628.53;2089005;28;45905;-65
2023/06/19 02:25:12;;;;;;;;;8.75;8.75;;;;;23.56;61.12;100623.09;2089678;28;46934;-65
2023/06/19 02:26:13;;;;;;;;;10.50;9.75;;;;;23.56;61.03;100624.94;2088891;28;45746;-64
2023/06/19 02:27:13;;;;;;;;;7.25;7.25;;;;;23.54;61.16;100624.22;2096755;28;46609;-64
2023/06/19 02:28:13;;;;;;;;;9.00;9.00;;;;;23.54;61.05;100626.94;2095109;28;45967;-62
2023/06/19 02:29:14;;;;;;;;;10.00;8.25;;;;;23.53;61.32;100630.63;2088309;28;46031;-62
2023/06/19 02:30:14;;;;;;;;;9.75;9.75;;;;;23.50;61.08;100631.69;2089479;28;46513;-64
2023/06/19 02:31:14;;;;;;;;;9.00;9.00;;;;;23.49;61.19;100625.41;2089540;28;46421;-62
2023/06/19 02:32:15;;;;;;;;;8.75;8.75;;;;;23.49;61.19;100627.25;2088508;28;46553;-65
2023/06/19 02:33:15;;;;;;;;;8.50;8.50;;;;;23.49;61.40;100629.97;2090000;28;46562;-63
2023/06/19 02:34:15;;;;;;;;;6.50;6.50;;;;;23.48;61.21;100623.69;2088449;28;46737;-63
2023/06/19 02:35:17;;;;;;;;;10.00;10.00;;;;;23.49;61.23;100630.81;2089486;28;45715;-62
2023/06/19 02:36:20;;;;;;;;;8.40;8.40;;;;;23.48;61.21;100631.81;2088968;28;47078;-63
2023/06/19 02:37:20;;;;;;;;;12.00;12.00;;;;;23.48;61.53;100631.81;2088763;28;46739;-65
2023/06/19 02:38:21;;;;;;;;;9.00;7.25;;;;;23.48;61.06;100639.94;2090066;28;46516;-65
2023/06/19 02:39:21;;;;;;;;;12.50;11.50;;;;;23.48;61.35;100637.22;2089507;28;45803;-64
2023/06/19 02:40:22;;;;;;;;;9.25;9.25;;;;;23.46;61.26;100638.34;2088963;28;45100;-63
2023/06/19 02:41:22;;;;;;;;;11.25;9.50;;;;;23.46;61.14;100636.50;2089379;28;45747;-64
2023/06/19 02:42:22;;;;;;;;;8.75;8.00;;;;;23.46;61.42;100644.63;2088685;28;45839;-63
2023/06/19 02:43:23;;;;;;;;;5.75;5.50;;;;;23.48;61.25;100647.19;2089460;28;45279;-65
2023/06/19 02:44:23;;;;;;;;;8.00;8.00;;;;;23.48;61.27;100642.66;2089637;28;45945;-65
2023/06/19 02:45:24;;;;;;;;;10.25;10.25;;;;;23.48;61.33;100645.34;2088768;28;45823;-64
2023/06/19 02:46:24;;;;;;;;;10.50;9.25;;;;;23.47;61.06;100646.34;2095022;28;46928;-67
2023/06/19 02:47:24;;;;;;;;;9.25;9.25;;;;;23.47;61.42;100649.03;2092702;28;46308;-67
2023/06/19 02:48:24;;;;;;;;;11.50;9.25;;;;;23.49;61.14;100648.94;2095382;28;47109;-68
2023/06/19 02:49:25;;;;;;;;;9.00;7.75;;;;;23.48;61.10;100648.06;2092420;28;45986;-68
2023/06/19 02:50:25;;;;;;;;;8.50;8.50;;;;;23.47;61.15;100648.19;2092202;28;46579;-67
2023/06/19 02:51:25;;;;;;;;;10.00;10.00;;;;;23.45;61.19;100647.44;2095185;28;45740;-66
2023/06/19 02:52:26;;;;;;;;;9.00;9.00;;;;;23.45;61.19;100650.16;2090551;28;46650;-64
2023/06/19 02:53:27;;;;;;;;;7.25;7.25;;;;;23.45;61.07;100647.44;2093492;28;46499;-66
2023/06/19 02:54:27;;;;;;;;;12.50;10.50;;;;;23.46;61.05;100647.31;2091108;28;47070;-66
2023/06/19 02:55:27;;;;;;;;;8.00;7.00;;;;;23.47;61.15;100651.75;2089146;28;46087;-66
2023/06/19 02:56:28;;;;;;;;;9.00;9.00;;;;;23.46;61.31;100636.50;2095751;28;46520;-66
2023/06/19 02:57:28;;;;;;;;;13.50;12.50;;;;;23.47;61.35;100645.47;2092659;28;45508;-66
2023/06/19 02:58:29;;;;;;;;;10.50;9.75;;;;;23.45;61.22;100644.72;2091820;28;45117;-63
2023/06/19 02:59:29;;;;;;;;;9.25;8.25;;;;;23.44;61.14;100648.44;2095439;28;47778;-62
2023/06/19 03:00:29;;;;;;;;;9.50;9.50;;;;;23.43;61.13;100652.97;2090943;28;45837;-63
2023/06/19 03:01:30;;;;;;;;;11.50;10.75;;;;;23.42;61.18;100655.81;2092248;28;45837;-62
2023/06/19 03:02:30;;;;;;;;;9.25;8.25;;;;;23.38;60.88;100647.06;2089537;28;47174;-62
2023/06/19 03:03:30;;;;;;;;;8.50;8.50;;;;;23.37;61.15;100650.72;2088677;28;45880;-66
2023/06/19 03:04:31;;;;;;;;;9.00;9.00;;;;;23.36;61.05;100650.84;2094592;28;46390;-67
2023/06/19 03:05:31;;;;;;;;;10.00;9.75;;;;;23.34;61.21;100650.97;2089487;28;45569;-69
2023/06/19 03:06:38;;;;;;;;;8.00;8.00;;;;;23.32;61.62;100647.50;2093476;28;45938;-65
2023/06/19 03:07:39;;;;;;;;;10.80;9.80;;;;;23.30;61.71;100657.59;2088726;28;45715;-66
2023/06/19 03:08:39;;;;;;;;;8.75;8.75;;;;;23.29;61.79;100655.00;2088076;28;45753;-67
2023/06/19 03:09:40;;;;;;;;;14.25;12.50;;;;;23.26;61.75;100648.00;2088440;28;46903;-67
2023/06/19 03:10:40;;;;;;;;;8.00;8.00;;;;;23.23;61.59;100648.19;2088819;28;45831;-65
2023/06/19 03:11:41;;;;;;;;;10.00;9.75;;;;;23.20;61.70;100645.72;2088255;28;46625;-66
2023/06/19 03:12:41;;;;;;;;;9.50;9.50;;;;;23.18;61.79;100640.44;2088388;28;46035;-68
2023/06/19 03:13:51;;;;;;;;;9.50;9.50;;;;;23.17;61.66;100643.25;2087956;28;45781;-65
2023/06/19 03:14:51;;;;;;;;;9.40;9.40;;;;;23.15;61.63;100646.09;2088157;28;45623;-66
2023/06/19 03:15:52;;;;;;;;;7.50;7.50;;;;;23.17;61.74;100645.97;2088291;28;46120;-68
2023/06/19 03:16:52;;;;;;;;;10.50;9.50;;;;;23.17;61.66;100646.84;2088309;28;45682;-65
2023/06/19 03:17:53;;;;;;;;;10.00;10.00;;;;;23.14;61.75;100644.38;2088410;28;46296;-65
2023/06/19 03:18:53;;;;;;;;;8.25;8.25;;;;;23.11;61.66;100655.41;2088396;28;46979;-65
2023/06/19 03:19:53;;;;;;;;;9.00;9.00;;;;;23.09;61.84;100651.94;2087549;28;45569;-65
2023/06/19 03:20:54;;;;;;;;;8.75;8.75;;;;;23.07;62.04;100655.75;2088206;28;45858;-66
2023/06/19 03:21:54;;;;;;;;;13.75;10.50;;;;;23.04;62.10;100656.84;2088438;28;45970;-68
2023/06/19 03:22:54;;;;;;;;;8.75;8.75;;;;;23.03;62.24;100655.13;2086588;28;45059;-66
2023/06/19 03:23:55;;;;;;;;;9.50;8.75;;;;;23.03;62.45;100655.13;2079709;28;45686;-66
2023/06/19 03:24:55;;;;;;;;;10.50;9.50;;;;;23.00;62.42;100655.38;2079202;28;46283;-67
2023/06/19 03:25:57;;;;;;;;;12.00;9.25;;;;;23.00;62.25;100657.22;2079202;28;45481;-67
2023/06/19 03:26:57;;;;;;;;;11.40;9.20;;;;;23.01;62.21;100650.81;2087646;28;46831;-66
2023/06/19 03:27:57;;;;;;;;;9.75;9.00;;;;;23.01;62.12;100648.97;2095292;28;45153;-66
2023/06/19 03:28:58;;;;;;;;;8.75;8.75;;;;;23.00;62.50;100658.06;2095383;28;45809;-66
2023/06/19 03:29:58;;;;;;;;;8.50;8.00;;;;;22.96;62.11;100653.84;2088223;28;45472;-67
2023/06/19 03:30:58;;;;;;;;;8.50;7.75;;;;;22.95;62.57;100649.41;2088128;28;45651;-67
2023/06/19 03:31:59;;;;;;;;;10.50;10.50;;;;;22.97;62.59;100657.41;2088273;28;45741;-66
2023/06/19 03:32:59;;;;;;;;;10.50;8.75;;;;;22.96;62.30;100650.28;2088500;28;45631;-69
2023/06/19 03:33:59;;;;;;;;;11.50;10.50;;;;;22.92;62.66;100644.22;2087891;28;46569;-66
2023/06/19 03:35:01;;;;;;;;;12.00;12.00;;;;;22.89;62.78;100648.03;2087638;28;46265;-66
2023/06/19 03:36:01;;;;;;;;;9.00;9.00;;;;;22.89;62.44;100658.00;2088400;28;45818;-65
2023/06/19 03:37:01;;;;;;;;;11.75;10.00;;;;;22.87;62.66;100659.97;2088551;28;45608;-66
2023/06/19 03:38:02;;;;;;;;;10.00;10.00;;;;;22.87;62.10;100658.13;2096849;28;45793;-67
2023/06/19 03:39:02;;;;;;;;;9.25;9.25;;;;;22.88;62.38;100651.72;2095981;28;46525;-67
2023/06/19 03:40:03;;;;;;;;;13.00;9.75;;;;;22.87;62.59;100655.41;2087975;28;46703;-65
2023/06/19 03:41:03;;;;;;;;;10.00;9.75;;;;;22.87;62.33;100652.72;2089082;28;45759;-65
2023/06/19 03:42:04;;;;;;;;;9.00;8.25;;;;;22.88;62.55;100653.56;2105026;28;45623;-64
2023/06/19 03:43:05;;;;;;;;;8.80;7.60;;;;;22.89;62.51;100656.16;2104097;28;46390;-66
2023/06/19 03:44:05;;;;;;;;;10.50;9.50;;;;;22.92;62.55;100655.06;2087412;28;45597;-66
2023/06/19 03:45:06;;;;;;;;;9.50;9.50;;;;;22.93;62.71;100659.50;2087198;28;46057;-67
2023/06/19 03:46:06;;;;;;;;;8.20;8.20;;;;;22.93;62.17;100659.50;2088119;28;45667;-66
2023/06/19 03:47:07;;;;;;;;;11.00;11.00;;;;;22.93;62.42;100667.59;2089749;28;45018;-68
2023/06/19 03:48:07;;;;;;;;;9.50;7.75;;;;;22.91;62.48;100664.16;2097157;28;46830;-67
2023/06/19 03:49:09;;;;;;;;;8.00;8.00;;;;;22.87;62.76;100666.22;2091092;28;46706;-66
2023/06/19 03:50:09;;;;;;;;;10.00;10.00;;;;;22.86;62.52;100672.59;2091050;28;46086;-64
2023/06/19 03:51:10;;;;;;;;;10.00;9.25;;;;;22.85;62.62;100667.31;2091120;28;45639;-66
2023/06/19 03:52:10;;;;;;;;;8.75;7.50;;;;;22.83;62.82;100666.56;2091304;28;46271;-65
2023/06/19 03:53:10;;;;;;;;;12.50;10.75;;;;;22.82;62.85;100675.63;2091490;28;46083;-64
2023/06/19 03:54:11;;;;;;;;;8.00;8.00;;;;;22.81;62.71;100669.34;2090163;28;46395;-66
2023/06/19 03:55:11;;;;;;;;;9.75;9.00;;;;;22.81;62.61;100676.59;2090872;28;46624;-65
2023/06/19 03:56:12;;;;;;;;;11.25;10.00;;;;;22.82;63.05;100681.03;2089402;28;46361;-66
2023/06/19 03:57:12;;;;;;;;;9.75;8.50;;;;;22.80;62.81;100670.31;2097020;28;46403;-66
2023/06/19 03:58:13;;;;;;;;;10.00;9.00;;;;;22.81;62.72;100665.78;2096320;28;46033;-66
2023/06/19 03:59:13;;;;;;;;;10.75;10.75;;;;;22.81;63.00;100666.63;2089344;28;46808;-67
2023/06/19 04:00:14;;;;;;;;;9.25;8.25;;;;;22.82;63.07;100662.09;2089849;28;45581;-67
2023/06/19 04:01:15;;;;;;;;;11.20;10.20;;;;;22.82;63.17;100665.66;2089148;28;45737;-69
2023/06/19 04:02:15;;;;;;;;;7.50;7.50;;;;;22.82;63.03;100660.25;2089443;28;46273;-66
2023/06/19 04:03:15;;;;;;;;;9.25;8.75;;;;;22.81;62.91;100657.66;2089664;28;45561;-67
2023/06/19 04:04:16;;;;;;;;;12.00;10.50;;;;;22.78;62.86;100661.47;2094992;28;46421;-66
2023/06/19 04:05:16;;;;;;;;;10.00;10.00;;;;;22.77;63.40;100662.44;2091170;28;45994;-65
2023/06/19 04:06:17;;;;;;;;;11.75;10.75;;;;;22.73;63.31;100663.63;2096159;28;46935;-66
2023/06/19 04:07:17;;;;;;;;;12.00;11.00;;;;;22.72;63.12;100667.31;2090015;28;45991;-65
2023/06/19 04:08:17;;;;;;;;;9.25;9.00;;;;;22.73;63.27;100660.91;2104822;28;45501;-66
2023/06/19 04:09:18;;;;;;;;;10.25;10.00;;;;;22.71;63.88;100668.28;2105354;28;45976;-67
2023/06/19 04:10:18;;;;;;;;;9.75;9.75;;;;;22.72;63.22;100664.59;2105368;28;45633;-68
2023/06/19 04:11:18;;;;;;;;;9.75;9.00;;;;;22.73;63.27;100662.75;2096128;28;46642;-67
2023/06/19 04:12:19;;;;;;;;;6.00;6.00;;;;;22.74;63.01;100665.38;2093738;28;46748;-66
2023/06/19 04:13:19;;;;;;;;;11.25;10.00;;;;;22.75;62.88;100658.13;2104968;27;45218;-66
2023/06/19 04:14:19;;;;;;;;;10.00;10.00;;;;;22.78;63.41;100657.88;2098179;28;44977;-66
2023/06/19 04:15:20;;;;;;;;;10.50;10.50;;;;;22.79;63.13;100656.91;2104661;27;45617;-66
2023/06/19 04:16:20;;;;;;;;;11.00;10.00;;;;;22.78;63.49;100666.88;2104951;28;45815;-65
2023/06/19 04:17:20;;;;;;;;;9.00;9.00;;;;;22.78;62.96;100666.88;2096729;28;44939;-64
2023/06/19 04:18:21;;;;;;;;;10.50;10.50;;;;;22.77;62.99;100675.97;2096304;28;46335;-65
2023/06/19 04:19:21;;;;;;;;;10.50;10.00;;;;;22.76;63.15;100666.13;2105327;28;45854;-65
2023/06/19 04:20:21;;;;;;;;;10.50;10.50;;;;;22.78;63.11;100666.00;2105386;27;45474;-66
2023/06/19 04:21:22;;;;;;;;;11.50;9.50;;;;;22.78;62.88;100675.00;2096730;28;46832;-66
2023/06/19 04:22:22;;;;;;;;;8.00;8.00;;;;;22.79;62.88;100683.97;2097118;28;45852;-66
2023/06/19 04:23:22;;;;;;;;;11.00;10.75;;;;;22.79;63.00;100676.72;2103646;27;46448;-67
2023/06/19 04:24:23;;;;;;;;;9.25;8.75;;;;;22.82;62.78;100678.31;2105189;28;46262;-66
2023/06/19 04:25:23;;;;;;;;;9.50;9.50;;;;;22.82;62.70;100681.03;2105476;28;44976;-67
2023/06/19 04:26:24;;;;;;;;;8.75;8.75;;;;;22.86;62.65;100685.25;2104700;28;46204;-66
2023/06/19 04:27:24;;;;;;;;;9.40;9.40;;;;;22.86;62.72;100690.69;2105531;28;46039;-67
2023/06/19 04:28:25;;;;;;;;;10.75;10.75;;;;;22.87;62.61;100679.75;2105109;28;46420;-67
2023/06/19 04:29:26;;;;;;;;;11.00;9.80;;;;;22.88;62.84;100688.75;2104680;28;45753;-68
2023/06/19 04:30:26;;;;;;;;;8.25;8.25;;;;;22.87;62.41;100693.28;2105432;28;45977;-68
2023/06/19 04:31:28;;;;;;;;;10.00;10.00;;;;;22.90;62.64;100692.19;2105076;27;46717;-67
2023/06/19 04:32:28;;;;;;;;;11.60;10.80;;;;;22.92;62.63;100692.94;2105331;28;46792;-64
2023/06/19 04:33:29;;;;;;;;;12.00;10.00;;;;;22.93;62.29;100696.50;2105692;28;45729;-67
2023/06/19 04:34:31;;;;;;;;;11.00;10.67;;;;;22.91;62.33;100693.94;2104537;27;46767;-66
2023/06/19 04:35:32;;;;;;;;;10.20;10.20;;;;;22.89;62.19;100696.75;2105244;28;46015;-67
2023/06/19 04:36:32;;;;;;;;;9.00;8.75;;;;;22.93;62.30;100699.22;2096422;28;46403;-66
2023/06/19 04:37:32;;;;;;;;;14.25;14.25;;;;;22.92;62.73;100697.50;2095989;28;45912;-66
2023/06/19 04:38:33;;;;;;;;;11.50;11.50;;;;;22.93;62.44;100699.22;2105431;28;45609;-69
2023/06/19 04:39:33;;;;;;;;;9.50;9.00;;;;;22.94;62.16;100700.94;2096351;28;45972;-67
2023/06/19 04:40:34;;;;;;;;;11.00;11.00;;;;;22.96;62.40;100701.69;2088566;28;45727;-67
2023/06/19 04:41:38;;;;;;;;;9.00;9.00;;;;;22.95;62.50;100703.53;2097138;28;45547;-68
2023/06/19 04:42:38;;;;;;;;;12.40;10.80;;;;;22.95;62.27;100702.69;2096187;28;46023;-69
2023/06/19 04:43:41;;;;;;;;;10.25;10.25;;;;;22.96;62.44;100709.81;2092923;28;46521;-68